Time;durP1;ratioP1;P1;durP2;ratioP2;P2;SDS_P1;SDS_P2;PMS_P1;PMS_P2;Temp;Humidity;BMP_temperature;BMP_pressure;BME280_temperature;BME280_humidity;BME280_pressure;Samples;Min_cycle;Max_cycle;Signal;HPM_P1;HPM_P2
2021/12/13 00:02:23;;;;;;;9.20;6.38;;;;;;;-3.85;82.50;94802.91;4948542;28;20348;-85
2021/12/13 00:04:58;;;;;;;10.68;6.07;;;;;;;-0.95;82.25;95237.94;4948960;28;20109;-85
2021/12/13 00:07:31;;;;;;;16.95;7.18;;;;;;;-1.43;82.66;95182.69;4974590;28;20046;-85
2021/12/13 00:10:03;;;;;;;15.82;7.00;;;;;;;-1.17;82.40;95225.13;4957484;28;20581;-85
2021/12/13 00:12:34;;;;;;;15.40;7.78;;;;;;;-2.23;82.53;95031.03;4973909;28;20042;-85
2021/12/13 00:15:02;;;;;;;16.08;7.22;;;;;;;-1.03;81.45;95236.34;4955869;28;20348;-85
2021/12/13 00:17:36;;;;;;;12.63;6.18;;;;;;;-2.20;81.25;95035.00;4972751;28;20171;-85
2021/12/13 00:20:14;;;;;;;10.88;6.18;;;;;;;-1.59;80.92;95169.06;4956472;28;20057;-85
2021/12/13 00:22:46;;;;;;;9.52;5.18;;;;;;;-1.57;80.64;95182.66;4974417;28;20093;-85
2021/12/13 00:25:16;;;;;;;10.75;5.90;;;;;;;-1.84;80.81;95136.84;4974516;28;20034;-85
2021/12/13 00:27:47;;;;;;;10.98;5.47;;;;;;;-1.88;81.23;95125.22;4956189;28;20047;-85
2021/12/13 00:30:40;;;;;;;6.95;4.65;;;;;;;-1.11;80.21;95254.75;4957123;28;20566;-85
2021/12/13 00:33:35;;;;;;;12.93;6.43;;;;;;;-1.12;80.92;95242.75;4956480;28;20141;-84
2021/12/13 00:36:24;;;;;;;9.75;5.38;;;;;;;-1.41;80.67;95184.09;4959510;28;20532;-85
2021/12/13 00:38:55;;;;;;;8.57;4.60;;;;;;;-1.10;80.08;95243.34;4957546;28;20049;-85
2021/12/13 00:41:26;;;;;;;12.90;6.00;;;;;;;-1.91;80.22;95125.63;4974166;28;20498;-85
2021/12/13 00:44:10;;;;;;;9.80;5.85;;;;;;;-0.98;81.55;95238.34;4974549;28;20502;-85
2021/12/13 00:46:38;;;;;;;9.52;5.43;;;;;;;-1.71;79.86;95112.66;4968024;28;20157;-84
2021/12/13 00:49:09;;;;;;;11.90;6.22;;;;;;;-1.37;79.31;95148.84;4956582;28;20685;-85
2021/12/13 00:51:41;;;;;;;8.43;5.38;;;;;;;-3.05;80.01;94890.31;4957187;28;20606;-84
2021/12/13 00:54:35;;;;;;;10.95;5.10;;;;;;;-3.92;78.15;94738.91;4974040;28;20049;-85
2021/12/13 00:57:01;;;;;;;7.50;4.72;;;;;;;-0.81;78.79;95234.34;4953004;28;20454;-84
2021/12/13 01:00:08;;;;;;;11.77;6.20;;;;;;;-0.74;79.33;95242.13;4974772;28;20515;-85
2021/12/13 01:02:47;;;;;;;5.60;3.60;;;;;;;-2.53;77.33;94980.44;4954711;28;20084;-85
2021/12/13 01:05:18;;;;;;;9.23;4.75;;;;;;;-0.65;78.28;95241.75;4954522;28;20041;-84
2021/12/13 01:08:07;;;;;;;7.82;4.80;;;;;;;-0.59;77.63;95243.53;4971230;28;20450;-85
2021/12/13 01:10:38;;;;;;;7.90;4.57;;;;;;;-0.77;77.33;95235.56;4965136;28;20057;-85
2021/12/13 01:13:06;;;;;;;;;;;;;;;-0.84;78.05;95239.97;4972220;28;20512;-85
2021/12/13 01:15:40;;;;;;;7.93;4.82;;;;;;;-1.55;77.45;95130.47;4956510;28;19918;-85
2021/12/13 01:18:27;;;;;;;7.45;4.88;;;;;;;-1.54;78.56;95110.47;4956126;28;20158;-85
2021/12/13 01:23:50;;;;;;;10.25;5.07;;;;;;;-1.85;77.29;95075.44;4966310;28;20122;-85
2021/12/13 01:26:38;;;;;;;7.55;4.55;;;;;;;-1.18;78.33;95184.50;4942005;28;20569;-85
2021/12/13 01:29:17;;;;;;;6.72;4.40;;;;;;;-0.91;78.64;95226.94;4955773;28;20047;-85
2021/12/13 01:32:07;;;;;;;7.55;5.03;;;;;;;-1.48;78.61;95154.66;4973299;28;20035;-84
2021/12/13 01:34:35;;;;;;;5.53;3.88;;;;;;;-1.75;77.92;95130.44;4954001;28;20078;-84
2021/12/13 01:37:16;;;;;;;7.10;4.88;;;;;;;-1.38;78.97;95168.09;4953326;28;20046;-85
2021/12/13 01:39:47;;;;;;;9.20;5.90;;;;;;;-2.44;79.35;94987.06;4952980;28;20038;-84
2021/12/13 01:42:18;;;;;;;6.57;4.68;;;;;;;-1.88;78.72;95090.63;4970801;28;20074;-85
2021/12/13 01:44:52;;;;;;;6.20;3.95;;;;;;;-1.99;77.42;95063.44;4953396;28;20066;-85
2021/12/13 01:47:24;;;;;;;5.80;4.50;;;;;;;-1.15;78.31;95195.53;4953413;28;20121;-84
2021/12/13 01:50:05;;;;;;;8.45;5.25;;;;;;;-1.12;79.26;95221.13;4969183;28;20061;-85
2021/12/13 01:52:35;;;;;;;7.45;4.97;;;;;;;-0.89;78.41;95237.16;4968910;28;20038;-84
2021/12/13 01:55:17;;;;;;;5.93;4.38;;;;;;;-3.67;78.74;94788.44;4952973;28;20102;-85
2021/12/13 01:57:55;;;;;;;7.28;4.32;;;;;;;-1.74;78.49;95076.63;4970551;28;20038;-84
2021/12/13 02:00:32;;;;;;;8.38;5.03;;;;;;;-0.79;79.26;95221.94;4953059;28;20093;-84
2021/12/13 02:02:59;;;;;;;7.22;4.95;;;;;;;-4.24;79.45;94716.28;4952914;28;20600;-85
2021/12/13 02:05:29;;;;;;;8.25;5.07;;;;;;;-0.68;79.48;95229.09;4972099;28;20046;-88
2021/12/13 02:08:00;;;;;;;6.37;4.87;;;;;;;-1.34;79.48;95165.88;4954618;28;20043;-89
2021/12/13 02:10:34;;;;;;;8.15;5.60;;;;;;;-3.37;79.85;94808.84;4954825;28;20047;-87
2021/12/13 02:13:06;;;;;;;7.00;4.75;;;;;;;-0.86;79.18;95227.16;4970696;28;20039;-88
2021/12/13 02:18:25;;;;;;;5.85;4.47;;;;;;;-2.07;79.54;95064.44;4971820;28;20050;-88
2021/12/13 02:21:06;;;;;;;6.78;4.97;;;;;;;-1.53;79.96;95136.28;4955219;28;20102;-86
2021/12/13 02:23:36;;;;;;;5.65;4.22;;;;;;;-2.66;81.09;94976.00;4971403;28;20035;-85
2021/12/13 02:26:02;;;;;;;9.70;4.90;;;;;;;-1.67;80.67;95127.63;4952832;28;20043;-86
2021/12/13 02:28:32;;;;;;;6.03;4.53;;;;;;;-2.60;81.30;94977.84;4954146;28;20315;-85
2021/12/13 02:31:08;;;;;;;12.82;5.65;;;;;;;-1.34;81.53;95181.50;4972694;28;20050;-85
2021/12/13 02:33:38;;;;;;;7.80;5.25;;;;;;;-1.39;81.36;95163.88;4954690;28;20035;-85
2021/12/13 02:36:10;;;;;;;7.25;5.28;;;;;;;-1.66;81.71;95142.25;4972433;28;20053;-85
2021/12/13 02:38:38;;;;;;;9.27;5.93;;;;;;;-1.32;81.55;95188.09;4973394;28;20045;-85
2021/12/13 02:41:05;;;;;;;7.07;5.00;;;;;;;-3.99;80.78;94770.97;4955921;28;20137;-85
2021/12/13 02:43:36;;;;;;;6.63;5.22;;;;;;;-1.97;81.47;95062.22;4954735;28;20545;-86
2021/12/13 02:46:03;;;;;;;7.15;5.32;;;;;;;-1.45;81.21;95143.84;4954631;28;20780;-86
2021/12/13 02:48:39;;;;;;;7.25;5.28;;;;;;;-1.28;82.19;95201.50;4971426;28;20051;-84
2021/12/13 02:51:14;;;;;;;6.60;5.20;;;;;;;-1.09;81.67;95231.16;4952914;28;20502;-86
2021/12/13 02:54:02;;;;;;;9.15;6.07;;;;;;;-2.38;81.82;95015.63;4972489;28;20560;-86
2021/12/13 02:56:35;;;;;;;8.10;5.50;;;;;;;-1.26;82.16;95194.31;4955877;28;20422;-85
2021/12/13 02:59:03;;;;;;;9.70;5.93;;;;;;;-1.70;81.85;95115.06;4955989;28;20035;-85
2021/12/13 03:01:53;;;;;;;8.18;5.68;;;;;;;-0.96;81.49;95237.16;4955611;28;20494;-86
2021/12/13 03:04:22;;;;;;;8.18;5.18;;;;;;;-1.43;81.53;95134.06;4955901;28;20070;-84
2021/12/13 03:06:58;;;;;;;8.55;6.10;;;;;;;-1.22;81.43;95178.06;4957705;28;20435;-85
2021/12/13 03:09:27;;;;;;;10.23;6.15;;;;;;;-0.88;81.37;95233.53;4975212;28;20054;-85
2021/12/13 03:11:55;;;;;;;9.02;5.80;;;;;;;-2.00;80.68;95047.06;4957779;28;20038;-85
2021/12/13 03:14:29;;;;;;;6.35;5.00;;;;;;;-1.84;80.83;95065.84;4975892;28;20042;-85
2021/12/13 03:17:15;;;;;;;9.15;6.00;;;;;;;-2.75;80.94;94938.28;4958185;28;20129;-85
2021/12/13 03:19:47;;;;;;;9.15;5.97;;;;;;;-1.02;81.13;95237.97;4956713;28;20035;-86
2021/12/13 03:22:34;;;;;;;9.27;5.85;;;;;;;-1.03;81.10;95236.34;4957038;28;20518;-85
2021/12/13 03:25:18;;;;;;;9.15;5.88;;;;;;;-1.01;81.30;95236.16;4975009;28;20164;-86
2021/12/13 03:27:46;;;;;;;10.45;6.57;;;;;;;-1.05;82.02;95234.94;4956334;28;20054;-85
2021/12/13 03:30:20;;;;;;;8.20;5.95;;;;;;;-1.64;81.81;95145.47;4942963;29;20097;-85
2021/12/13 03:32:56;;;;;;;9.75;6.38;;;;;;;-1.04;82.23;95229.53;4937129;29;20119;-85
2021/12/13 03:35:31;;;;;;;7.82;5.78;;;;;;;-1.62;82.39;95173.88;4935321;29;20042;-85
2021/12/13 03:38:18;;;;;;;9.27;6.07;;;;;;;-1.11;82.62;95235.75;4965404;28;20054;-85
2021/12/13 03:40:45;;;;;;;9.20;5.70;;;;;;;-2.54;81.89;95057.53;4946644;29;20039;-85
2021/12/13 03:43:16;;;;;;;11.95;6.88;;;;;;;-2.45;82.85;95056.38;4934897;29;20110;-85
2021/12/13 03:45:50;;;;;;;8.65;6.38;;;;;;;-3.05;82.38;94958.53;4935106;29;20036;-85
2021/12/13 03:48:18;;;;;;;9.02;6.22;;;;;;;-1.10;82.91;95243.34;4941440;28;20046;-85
2021/12/13 03:50:48;;;;;;;8.43;5.63;;;;;;;-1.73;81.83;95175.25;4971404;28;20035;-85
2021/12/13 03:53:19;;;;;;;9.50;6.13;;;;;;;-1.32;82.65;95237.53;4933534;29;20518;-86
2021/12/13 03:55:48;;;;;;;7.63;5.40;;;;;;;-1.73;82.69;95161.44;4934671;29;20540;-85
2021/12/13 03:58:18;;;;;;;8.80;6.20;;;;;;;-1.56;82.38;95186.06;4934201;28;20054;-86
2021/12/13 04:00:52;;;;;;;8.88;5.65;;;;;;;-4.46;82.19;94745.88;4936045;28;20035;-86
2021/12/13 04:03:18;;;;;;;10.48;6.68;;;;;;;-2.00;82.91;95103.41;4937622;28;20782;-86
2021/12/13 04:05:46;;;;;;;9.32;6.60;;;;;;;-1.22;82.78;95226.75;4939465;28;20042;-85
2021/12/13 04:08:16;;;;;;;13.13;6.47;;;;;;;-2.46;84.01;95057.34;4943514;28;20047;-87
2021/12/13 04:10:51;;;;;;;10.75;6.32;;;;;;;-1.40;83.32;95209.09;4968545;28;20561;-86
2021/12/13 04:13:29;;;;;;;9.43;6.70;;;;;;;-1.20;83.48;95229.94;4948323;29;20126;-85
2021/12/13 04:16:18;;;;;;;11.00;7.22;;;;;;;-1.90;83.37;95118.59;4933894;29;20043;-85
2021/12/13 04:21:34;;;;;;;10.48;6.57;;;;;;;-1.51;84.41;95201.88;4950812;28;20074;-85
2021/12/13 04:24:04;;;;;;;10.40;7.03;;;;;;;-2.39;84.09;95067.75;4938999;28;20443;-85
2021/12/13 04:26:36;;;;;;;12.98;7.95;;;;;;;-1.78;84.18;95161.25;4944671;29;20046;-85
2021/12/13 04:29:02;;;;;;;;;;;;;;;-1.29;84.95;95259.72;4931008;29;20516;-84
2021/12/13 04:31:32;;;;;;;11.93;7.53;;;;;;;-2.46;85.00;95065.16;4932647;29;19926;-85
2021/12/13 04:34:04;;;;;;;12.35;7.85;;;;;;;-1.79;84.53;95167.44;4948460;29;20047;-85
2021/12/13 04:36:29;;;;;;;11.93;7.72;;;;;;;-1.12;84.91;95271.38;4958327;29;20079;-85
2021/12/13 04:39:07;;;;;;;12.68;8.07;;;;;;;-1.74;84.71;95217.84;4939937;29;20093;-86
2021/12/13 04:41:36;;;;;;;16.95;8.98;;;;;;;-1.13;85.63;95263.75;4924426;28;20422;-86
2021/12/13 04:44:30;;;;;;;13.48;8.90;;;;;;;-1.63;85.09;95193.88;4951796;28;20039;-85
2021/12/13 04:47:02;;;;;;;12.45;8.38;;;;;;;-1.94;84.41;95165.00;4950290;28;20550;-85
2021/12/13 04:49:31;;;;;;;13.48;8.30;;;;;;;-1.25;84.60;95282.56;4968218;28;20070;-86
2021/12/13 04:52:04;;;;;;;11.73;7.78;;;;;;;-1.62;84.85;95211.06;4934662;29;20071;-85
2021/12/13 04:54:33;;;;;;;21.33;9.25;;;;;;;-1.47;84.60;95236.91;4951496;28;20442;-85
2021/12/13 04:57:02;;;;;;;13.25;7.93;;;;;;;-2.05;84.12;95149.97;4948259;29;20059;-83
2021/12/13 04:59:31;;;;;;;14.60;8.65;;;;;;;-3.44;84.16;94954.00;4951909;29;20051;-86
2021/12/13 05:02:00;;;;;;;14.13;8.57;;;;;;;-2.99;84.83;94988.91;4949540;28;20048;-86
2021/12/13 05:04:29;;;;;;;15.25;9.10;;;;;;;-5.36;84.49;94614.84;4931096;29;20546;-85
2021/12/13 05:06:59;;;;;;;13.85;9.05;;;;;;;-3.76;84.51;94863.94;4953099;28;20459;-86
2021/12/13 05:09:28;;;;;;;13.35;8.65;;;;;;;-1.23;84.42;95270.19;4953563;28;20043;-84
2021/12/13 05:12:09;;;;;;;13.57;8.38;;;;;;;-1.66;84.44;95204.66;4947529;28;20051;-84
2021/12/13 05:14:44;;;;;;;14.38;8.60;;;;;;;-1.02;84.20;95284.81;4925892;28;20277;-85
2021/12/13 05:17:17;;;;;;;13.05;8.50;;;;;;;-1.05;84.40;95277.38;4923553;29;20104;-83
2021/12/13 05:19:53;;;;;;;11.85;8.05;;;;;;;-1.10;83.52;95289.41;4949300;28;20473;-84
2021/12/13 05:22:20;;;;;;;16.27;9.05;;;;;;;-1.20;83.87;95255.94;4956130;28;20544;-87
2021/12/13 05:24:59;;;;;;;13.70;9.57;;;;;;;-2.07;83.95;95142.38;4938253;28;20422;-86
2021/12/13 05:27:39;;;;;;;13.07;8.73;;;;;;;-0.99;84.10;95294.81;4940085;28;20280;-86
2021/12/13 05:30:13;;;;;;;12.38;8.95;;;;;;;-3.84;83.20;94870.06;4970952;28;20384;-86
2021/12/13 05:32:47;;;;;;;11.60;8.02;;;;;;;-3.14;83.20;94978.69;4967269;28;20038;-87
2021/12/13 05:35:22;;;;;;;12.52;8.02;;;;;;;-2.82;84.38;95034.25;4967177;28;20467;-86
2021/12/13 05:37:52;;;;;;;14.20;8.55;;;;;;;-2.87;84.31;95026.25;4952795;28;20050;-85
2021/12/13 05:40:40;;;;;;;11.65;7.72;;;;;;;-4.16;83.94;94816.31;4968927;28;20045;-85
2021/12/13 05:43:20;;;;;;;15.48;8.75;;;;;;;-1.43;84.00;95250.31;4944147;28;20056;-84
2021/12/13 05:45:57;;;;;;;12.80;8.43;;;;;;;-1.02;84.01;95310.84;4965636;28;20470;-85
2021/12/13 05:48:41;;;;;;;12.48;8.55;;;;;;;-2.20;83.78;95118.94;4940517;28;20114;-85
2021/12/13 05:51:18;;;;;;;10.70;7.40;;;;;;;-2.95;83.85;95018.66;4952608;28;20466;-86
2021/12/13 05:53:52;;;;;;;15.85;10.00;;;;;;;-2.59;83.62;95116.25;4965429;28;20066;-86
2021/12/13 05:56:23;;;;;;;12.73;8.88;;;;;;;-3.09;84.03;95031.75;4955588;28;20051;-85
2021/12/13 05:59:08;;;;;;;15.98;8.68;;;;;;;-6.37;83.28;94456.06;4981077;28;20035;-87
2021/12/13 06:02:01;;;;;;;16.83;9.63;;;;;;;-0.95;83.63;95316.06;4960541;28;20364;-85
2021/12/13 06:04:34;;;;;;;14.18;7.95;;;;;;;-1.39;83.78;95264.53;4959230;28;20152;-84
2021/12/13 06:07:00;;;;;;;15.18;9.52;;;;;;;-1.41;83.77;95276.94;4965708;28;20509;-87
2021/12/13 06:10:08;;;;;;;19.42;9.18;;;;;;;-0.73;83.66;95335.69;4948093;28;20825;-85
2021/12/13 06:12:52;;;;;;;15.32;9.20;;;;;;;-4.73;83.38;94700.94;4960719;28;20514;-84
2021/12/13 06:15:36;;;;;;;15.57;8.57;;;;;;;-3.76;83.19;94916.56;4977063;28;20441;-85
2021/12/13 06:18:05;;;;;;;14.32;8.73;;;;;;;-0.65;83.59;95339.91;4964648;28;20139;-86
2021/12/13 06:20:37;;;;;;;13.30;8.95;;;;;;;-2.61;83.80;95071.50;4960648;28;20047;-85
2021/12/13 06:23:13;;;;;;;13.48;7.93;;;;;;;-1.99;83.84;95191.59;4944873;28;20050;-85
2021/12/13 06:25:43;;;;;;;10.95;7.53;;;;;;;-1.37;84.29;95302.34;4946390;28;20605;-85
2021/12/13 06:28:19;;;;;;;14.57;8.30;;;;;;;-2.04;84.49;95160.16;4964585;28;20163;-85
2021/12/13 06:30:52;;;;;;;13.85;9.02;;;;;;;-1.32;85.07;95281.75;4948826;28;20046;-85
2021/12/13 06:33:17;;;;;;;14.88;8.73;;;;;;;-4.29;84.62;94828.22;4965208;28;20047;-85
2021/12/13 06:35:53;;;;;;;12.95;8.80;;;;;;;-2.43;84.71;95100.28;4946454;28;20049;-84
2021/12/13 06:38:19;;;;;;;12.48;8.80;;;;;;;-0.99;84.40;95351.31;4949341;28;20154;-84
2021/12/13 06:41:01;;;;;;;15.20;8.57;;;;;;;-2.75;84.79;95112.19;4948955;28;20501;-84
2021/12/13 06:43:36;;;;;;;15.88;9.45;;;;;;;-4.49;85.06;94810.94;4952707;28;20504;-85
2021/12/13 06:46:07;;;;;;;16.80;9.70;;;;;;;-1.31;85.27;95309.41;4946607;28;20049;-84
2021/12/13 06:48:42;;;;;;;15.60;9.75;;;;;;;-1.22;85.21;95316.00;4963195;28;20292;-84
2021/12/13 06:51:12;;;;;;;15.93;8.52;;;;;;;-2.91;84.22;95055.41;4943018;28;20104;-82
2021/12/13 06:53:38;;;;;;;15.27;8.77;;;;;;;-0.92;84.78;95467.47;4962989;28;20554;-83
2021/12/13 06:56:22;;;;;;;15.80;8.88;;;;;;;-1.33;84.59;95334.00;4954038;28;20106;-82
2021/12/13 06:58:52;;;;;;;13.18;8.02;;;;;;;-1.48;84.68;95309.94;4947037;28;20441;-84
2021/12/13 07:01:18;;;;;;;23.95;10.57;;;;;;;-1.42;84.89;95296.94;4961781;28;20042;-85
2021/12/13 07:04:05;;;;;;;17.58;9.95;;;;;;;-0.78;85.00;95390.19;4966706;28;20035;-84
2021/12/13 07:06:32;;;;;;;15.82;10.27;;;;;;;-2.18;84.42;95205.31;4944900;28;20065;-84
2021/12/13 07:09:27;;;;;;;16.88;10.27;;;;;;;-3.28;84.01;95013.31;4965256;28;20126;-85
2021/12/13 07:11:57;;;;;;;22.23;10.70;;;;;;;-3.62;84.32;94961.47;4936618;28;20050;-86
2021/12/13 07:14:37;;;;;;;16.13;10.43;;;;;;;-1.42;84.20;95327.34;4956744;28;20360;-84
2021/12/13 07:17:17;;;;;;;19.45;10.00;;;;;;;-3.24;84.87;95034.47;4951653;28;20047;-85
2021/12/13 07:19:47;;;;;;;14.85;8.43;;;;;;;-2.07;84.54;95237.72;4938100;28;20078;-85
2021/12/13 07:22:19;;;;;;;14.25;8.70;;;;;;;-1.73;84.91;95279.25;4937564;28;20134;-87
2021/12/13 07:25:06;;;;;;;15.88;9.98;;;;;;;-0.95;85.34;95384.53;4957497;28;20122;-86
2021/12/13 07:27:42;;;;;;;13.18;9.15;;;;;;;-6.16;83.57;94545.53;4947828;28;20095;-86
2021/12/13 07:30:14;;;;;;;13.70;8.55;;;;;;;-0.90;84.19;95389.94;4925589;28;20039;-87
2021/12/13 07:32:57;;;;;;;18.20;8.75;;;;;;;-6.42;83.85;94509.22;4946575;28;20054;-86
2021/12/13 07:35:43;;;;;;;11.20;7.57;;;;;;;-5.62;82.83;94630.16;4941185;28;20047;-86
2021/12/13 07:38:17;;;;;;;12.82;8.85;;;;;;;-0.87;84.28;95405.19;4942776;28;20102;-88
2021/12/13 07:40:48;;;;;;;13.07;8.73;;;;;;;-3.29;83.68;95097.31;4943812;28;20147;-86
2021/12/13 07:43:26;;;;;;;14.33;8.60;;;;;;;-5.67;83.88;94702.25;4939708;28;20075;-86
2021/12/13 07:46:28;;;;;;;17.67;9.60;;;;;;;-0.70;84.17;95400.44;4942177;28;20433;-86
2021/12/13 07:49:02;;;;;;;20.83;10.43;;;;;;;-4.64;82.88;94798.09;4938431;28;20490;-85
2021/12/13 07:51:35;;;;;;;14.68;9.15;;;;;;;-6.04;83.69;94592.31;4938799;28;20067;-86
2021/12/13 07:54:17;;;;;;;13.63;8.25;;;;;;;-6.76;82.47;94510.69;4927552;28;20051;-86
2021/12/13 07:56:48;;;;;;;17.85;9.77;;;;;;;-3.03;83.48;95096.66;4946114;28;20051;-85
2021/12/13 07:59:24;;;;;;;16.15;9.05;;;;;;;-0.56;83.10;95422.06;4943595;28;20157;-85
2021/12/13 08:01:54;;;;;;;14.30;8.13;;;;;;;-2.94;83.34;95098.09;4941989;28;20203;-86
2021/12/13 08:04:28;;;;;;;13.27;8.40;;;;;;;-5.22;82.75;94719.91;4945906;28;20042;-86
2021/12/13 08:06:58;;;;;;;14.88;8.88;;;;;;;-6.37;82.92;94590.22;4938781;28;20401;-85
2021/12/13 08:09:29;;;;;;;15.00;8.65;;;;;;;-6.83;83.06;94511.59;4934095;28;20098;-85
2021/12/13 08:12:20;;;;;;;18.23;8.80;;;;;;;-0.71;83.47;95421.44;4929217;28;20047;-84
2021/12/13 08:14:51;;;;;;;13.32;8.27;;;;;;;-6.39;82.49;94606.88;4958096;28;20871;-87
2021/12/13 08:17:25;;;;;;;23.92;10.18;;;;;;;-6.06;83.62;94613.16;4952402;28;20053;-87
2021/12/13 08:20:00;;;;;;;17.50;10.00;;;;;;;-5.90;83.00;94697.31;4936879;28;20043;-85
2021/12/13 08:22:30;;;;;;;18.40;10.48;;;;;;;-6.00;83.27;94660.66;4949858;28;20057;-87
2021/12/13 08:25:06;;;;;;;16.88;9.25;;;;;;;-2.94;83.15;95063.56;4928672;28;20083;-88
2021/12/13 08:27:35;;;;;;;17.77;10.05;;;;;;;-1.72;82.90;95300.84;4961750;28;20053;-87
2021/12/13 08:30:13;;;;;;;14.82;10.73;;;;;;;-0.69;83.87;95420.25;4954784;28;20042;-86
2021/12/13 08:32:58;;;;;;;16.48;9.02;;;;;;;-4.01;82.05;94955.06;4969096;28;20104;-86
2021/12/13 08:35:46;;;;;;;17.83;9.57;;;;;;;-0.66;82.93;95432.88;4975768;28;20055;-86
2021/12/13 08:38:24;;;;;;;17.90;10.13;;;;;;;-3.92;82.79;94927.22;4943169;28;20046;-87
2021/12/13 08:40:51;;;;;;;17.23;10.10;;;;;;;-5.31;83.13;94728.00;4953466;28;20550;-86
2021/12/13 08:43:40;;;;;;;19.65;11.02;;;;;;;-0.55;83.44;95427.09;4963935;28;20577;-86
2021/12/13 08:46:06;;;;;;;17.02;9.15;;;;;;;-2.80;82.14;95067.81;4953305;28;20524;-85
2021/12/13 08:48:47;;;;;;;12.15;8.18;;;;;;;-2.55;81.62;95128.63;4965112;28;20077;-85
2021/12/13 08:51:26;;;;;;;17.02;7.88;;;;;;;-5.90;81.48;94643.09;4944956;28;20561;-85
2021/12/13 08:54:19;;;;;;;12.40;7.93;;;;;;;-0.59;82.10;95430.28;4943214;28;20054;-84
2021/12/13 08:56:50;;;;;;;12.00;8.02;;;;;;;-5.83;81.47;94631.00;4923148;28;20073;-85
2021/12/13 08:59:28;;;;;;;14.85;8.60;;;;;;;-2.57;82.08;95119.44;4959818;28;20513;-85
2021/12/13 09:02:08;;;;;;;13.85;8.70;;;;;;;-4.73;82.34;94800.03;4967730;28;20035;-86
2021/12/13 09:04:41;;;;;;;13.30;8.48;;;;;;;-4.20;81.74;94911.72;4970867;28;20912;-86
2021/12/13 09:07:13;;;;;;;15.60;8.23;;;;;;;-2.50;81.93;95131.44;4955808;28;20624;-86
2021/12/13 09:09:43;;;;;;;;;;;;;;;-0.55;81.73;95436.72;4953927;28;20046;-86
2021/12/13 09:12:12;;;;;;;16.83;9.63;;;;;;;-5.74;81.80;94647.97;4969868;28;19925;-87
2021/12/13 09:14:50;;;;;;;17.25;9.88;;;;;;;-5.99;81.44;94541.72;4988096;28;20043;-87
2021/12/13 09:17:26;;;;;;;13.48;8.68;;;;;;;-1.59;81.30;95241.06;4955075;28;20177;-85
2021/12/13 09:20:16;;;;;;;14.65;9.15;;;;;;;-0.77;81.08;95360.56;4963420;28;20042;-86
2021/12/13 09:22:51;;;;;;;13.48;8.10;;;;;;;-0.43;80.90;95419.47;4916232;28;20058;-86
2021/12/13 09:25:37;;;;;;;12.93;8.47;;;;;;;-0.89;81.39;95362.13;263299;28;10022825;-88
2021/12/13 09:28:29;;;;;;;14.20;9.27;;;;;;;-3.41;81.20;94969.16;4964770;28;20645;-87
2021/12/13 09:31:25;;;;;;;12.10;7.65;;;;;;;-0.41;80.63;95407.06;4988863;28;20093;-88
2021/12/13 09:34:19;;;;;;;14.57;9.20;;;;;;;-0.40;81.88;95416.50;4971342;28;20101;-88
2021/12/13 09:37:01;;;;;;;14.63;9.00;;;;;;;-6.25;80.65;94546.66;4988469;28;20042;-90
2021/12/13 09:39:35;;;;;;;;;;;;;;;-0.41;81.47;95412.28;4970639;28;20102;-89
2021/12/13 09:42:16;;;;;;;13.95;8.85;;;;;;;-6.38;80.67;94525.91;4990898;28;19991;-88
2021/12/13 09:44:49;;;;;;;13.00;8.17;;;;;;;-0.41;81.61;95399.25;4983525;28;20061;-89
2021/12/13 09:47:21;;;;;;;18.27;9.93;;;;;;;-0.89;81.31;95323.88;4969087;28;20076;-86
2021/12/13 09:50:07;;;;;;;13.73;7.97;;;;;;;-2.54;80.32;95080.09;4977337;28;20402;-87
2021/12/13 09:52:42;;;;;;;19.02;9.77;;;;;;;-2.39;81.89;95175.06;4972972;28;20123;-86
2021/12/13 09:55:18;;;;;;;19.67;9.15;;;;;;;-6.41;81.47;94462.59;4972626;28;20058;-87
2021/12/13 09:57:59;;;;;;;17.17;9.95;;;;;;;-1.48;81.78;95198.09;4983044;28;20054;-87
2021/12/13 10:00:38;;;;;;;18.83;10.75;;;;;;;-0.08;81.64;95401.84;4964294;28;20655;-86
2021/12/13 10:03:08;;;;;;;15.48;9.32;;;;;;;-2.40;81.32;95071.34;4964650;28;20113;-87
2021/12/13 10:05:40;;;;;;;11.75;7.88;;;;;;;-4.98;80.02;94666.19;4966452;28;20050;-88
2021/12/13 10:08:11;;;;;;;15.50;8.68;;;;;;;-2.64;79.99;95010.38;4995724;28;20094;-88
2021/12/13 10:10:50;;;;;;;18.88;9.68;;;;;;;0.02;81.32;95404.03;4971178;28;20068;-87
2021/12/13 10:13:36;;;;;;;15.63;9.55;;;;;;;0.01;80.55;95400.63;4974723;28;20452;-86
2021/12/13 10:16:16;;;;;;;21.50;10.80;;;;;;;-0.90;81.37;95272.78;4971488;28;20042;-87
2021/12/13 10:18:45;;;;;;;13.80;8.55;;;;;;;-0.98;79.72;95257.38;4971820;28;20732;-88
2021/12/13 10:21:19;;;;;;;13.45;9.13;;;;;;;0.04;80.60;95404.66;4959130;28;20045;-87
2021/12/13 10:23:51;;;;;;;15.40;9.30;;;;;;;-1.63;81.00;95172.25;4988000;28;20030;-87
2021/12/13 10:26:19;;;;;;;13.98;9.32;;;;;;;-3.08;80.72;94880.31;4969505;28;20042;-88
2021/12/13 10:28:58;;;;;;;14.45;9.30;;;;;;;-2.95;79.63;94914.84;4967610;28;20054;-89
2021/12/13 10:31:48;;;;;;;12.68;8.32;;;;;;;0.09;80.08;95387.38;4945440;28;20212;-87
2021/12/13 10:34:22;;;;;;;16.30;9.77;;;;;;;-4.63;80.12;94662.56;4968974;28;20046;-90
2021/12/13 10:36:55;;;;;;;12.85;8.85;;;;;;;-5.69;79.66;94500.16;4976792;28;20049;-89
2021/12/13 10:39:24;;;;;;;;;;;;;;;-0.02;79.60;95380.19;4948755;28;20110;-88
2021/12/13 10:41:55;;;;;;;17.02;9.65;;;;;;;-3.19;79.97;94882.47;4965386;28;19918;-90
2021/12/13 10:44:29;;;;;;;12.77;8.77;;;;;;;-5.41;79.61;94560.31;4950029;28;20042;-89
2021/12/13 10:47:09;;;;;;;15.75;8.98;;;;;;;-2.28;79.49;95024.81;4950430;28;21892;-90
2021/12/13 10:49:48;;;;;;;10.13;7.28;;;;;;;-2.76;79.95;94966.03;4954566;28;20035;-87
2021/12/13 10:52:22;;;;;;;10.27;7.43;;;;;;;-1.16;79.78;95225.94;4968115;28;20478;-88
2021/12/13 10:54:53;;;;;;;14.68;8.60;;;;;;;-0.26;80.47;95371.19;4967360;28;20039;-86
2021/12/13 10:57:31;;;;;;;16.65;9.75;;;;;;;-1.47;80.69;95140.66;4965604;28;20043;-89
2021/12/13 10:59:58;;;;;;;15.13;8.90;;;;;;;-0.24;80.19;95331.88;4955427;28;20097;-87
2021/12/13 11:02:29;;;;;;;15.27;9.38;;;;;;;-1.46;79.88;95137.06;4952469;28;20039;-88
2021/12/13 11:05:10;;;;;;;17.20;11.50;;;;;;;-3.28;81.40;94844.72;4971468;28;20046;-85
2021/12/13 11:07:52;;;;;;;19.13;11.23;;;;;;;-3.98;80.30;94731.13;4946516;28;20047;-85
2021/12/13 11:10:38;;;;;;;14.88;10.18;;;;;;;0.26;79.86;95455.56;4955505;28;20038;-86
2021/12/13 11:13:22;;;;;;;15.93;10.88;;;;;;;-5.29;78.71;94519.25;4940545;28;20061;-87
2021/12/13 11:24:22;;;;;;;12.12;8.30;;;;;;;0.36;78.99;95370.69;5010332;28;20552;-88
2021/12/13 11:26:58;;;;;;;11.75;8.45;;;;;;;-3.67;78.38;94796.19;4945864;28;20121;-88
2021/12/13 11:29:24;;;;;;;14.95;9.95;;;;;;;-1.85;80.23;95052.06;4936139;28;20038;-87
2021/12/13 11:31:53;;;;;;;12.40;7.68;;;;;;;0.19;79.16;95361.69;4938181;28;20649;-88
2021/12/13 11:34:56;;;;;;;13.68;7.90;;;;;;;0.27;79.24;95374.50;4943889;28;20348;-88
2021/12/13 11:37:54;;;;;;;12.85;7.85;;;;;;;-0.38;78.79;95286.78;4945247;28;20206;-88
2021/12/13 11:40:44;;;;;;;19.95;9.75;;;;;;;0.24;79.97;95376.72;4945908;28;20081;-88
2021/12/13 11:43:55;;;;;;;16.75;9.90;;;;;;;0.31;81.32;95367.88;4946110;28;20046;-89
2021/12/13 11:46:29;;;;;;;16.95;8.60;;;;;;;0.25;79.63;95380.94;4957210;28;20445;-88
2021/12/13 11:49:22;;;;;;;17.65;9.57;;;;;;;0.36;80.29;95375.09;4939157;28;20149;-88
2021/12/13 11:52:26;;;;;;;13.70;9.18;;;;;;;0.36;79.66;95377.69;4960561;28;20478;-87
2021/12/13 11:55:13;;;;;;;20.92;9.52;;;;;;;0.41;80.69;95383.09;4957528;28;20457;-87
2021/12/13 11:58:14;;;;;;;12.07;8.35;;;;;;;-1.41;79.92;95115.66;4959879;28;20043;-88
2021/12/13 12:01:09;;;;;;;14.13;9.55;;;;;;;0.38;80.09;95373.09;4963503;28;20478;-89
2021/12/13 12:03:53;;;;;;;15.73;10.32;;;;;;;0.47;80.08;95371.84;4966697;28;20445;-88
2021/12/13 12:06:53;;;;;;;14.63;9.30;;;;;;;0.34;80.53;95379.72;4971454;28;20042;-87
2021/12/13 12:09:40;;;;;;;15.02;10.15;;;;;;;0.40;80.60;95376.28;4969678;28;20057;-89
2021/12/13 12:12:33;;;;;;;14.88;10.00;;;;;;;-0.57;80.30;95236.31;4966058;28;20049;-88
2021/12/13 12:15:01;;;;;;;17.08;11.55;;;;;;;-0.84;80.38;95180.09;4958210;28;20308;-89
2021/12/13 12:17:28;;;;;;;17.85;11.15;;;;;;;0.49;80.38;95374.25;4947656;28;20050;-88
2021/12/13 12:19:56;;;;;;;17.90;11.80;;;;;;;0.13;81.12;95323.38;4975397;28;20528;-88
2021/12/13 12:22:27;;;;;;;19.30;10.70;;;;;;;-3.97;79.67;94652.44;4960181;28;20462;-88
2021/12/13 12:24:57;;;;;;;15.57;10.35;;;;;;;-0.45;79.65;95229.47;4949697;28;20073;-87
2021/12/13 12:27:29;;;;;;;17.92;10.20;;;;;;;-0.95;79.80;95165.06;4964608;28;20607;-86
2021/12/13 12:30:13;;;;;;;16.38;10.70;;;;;;;-0.14;80.29;95351.31;4984198;28;20102;-85